DeKalb-Peachtree

Airport
ICAO code: 
KPDK
Summary
ICAO Region: 
NAM
Territory: 
Location: 
Chamblee, Georgia,
Coordinates: 
Aerial View: 
33° 52' 32.156" N, 84° 18' 7.207" W
Airport LOS: 
Parallel Runway Operation
Metar
Observation
KPDK 040653Z AUTO 00000KT 9SM CLR 08/07 A3008 RMK AO2 SLP180 T00780067
Station
Atlanta, De Kalb-Peachtree Airport
Date/Time
2021-12-04 06:53:00
Wind direction
Wind speed
00 kts
Lowest cloud amount
n/a
Temperature
7.8°C
Dew point
6.7°C
Humidity
92%
Weather condition
n/a

Description

DeKalb-Peachtree Airport is a municipal general aviation airport located in Chamblee, Georgia, just northeast of Atlanta.

Climatology

Humid “subtropical” climate (Köppen climate classification Cfa) - characterized by hot, humid summers and cool winters. Significant amounts of precipitation occur in all seasons in most areas. Winter rainfall (and sometimes snowfall) is associated with large storms that the westerlies steer from west to east. Most summer rainfall occurs during thunderstorms and occasional tropical storms (hurricanes).

Runways

Designator Length Width Surface Rops
9/27 1031 46 ASP Yes/Yes
02L/20R 1142 46 ASP Yes/Yes
16/34 1209 46 ASP Yes/Yes
02R/20L 1829 30 CON Yes/Yes
Airport map: 
Aerial View: 

SKYbrary Partners:

Safety knowledge contributed by: